Angelina County Airport
KLFK : now visible

Aeroporto :











RITROVATECI SU...

 
LOGIN :

Iscrizione | Disclaimer

   EN    FR    IT 

 









Sommario :    VFR   VFR Marginale   IFR   IFR Intensivo   IFR Molto Intensivo
Visibilità : 
Base nubi : 
>= 8 km
>= 3000ft
5 / 8 km
1000 / 3000 ft
1500m / 5 km
500 / 1000 ft
800 / 1500m
200 / 500 ft
< 800m
< 200 ft
Simboli :   Temporali  Nebbia  Neve Forte  Precipitazioni Forti  Vento > 20 kt







- Altitudine del aeroporto : 296 ft


KLFK - Angelina County

ULTIMO METAR :
  • 201553Z AUTO 27004KT 10SM BKN024 BKN029 BKN035 31/24 A3005 RMK AO2 SLP171 T03060244

METARs OBSOLETI :
  • 201535Z AUTO VRB04KT 10SM BKN021 31/24 A3005 RMK AO2 T03060244
  • 201453Z AUTO 25007KT 10SM FEW016 30/25 A3005 RMK AO2 SLP169 T03000250 51005
  • 201353Z AUTO 22004KT 10SM CLR 28/25 A3005 RMK AO2 SLP169 T02780250
  • 201253Z AUTO 00000KT 8SM CLR 26/24 A3004 RMK AO2 SLP167 T02560239

TAF KLFK
Valido dal 20 a 12 ore il 21 a 12 ore UTC


201120Z 2012/2112 VRB03KT P6SM SCT250
TEMPO 2012/2016 BKN015
FM201600 VRB05KT P6SM SCT030 SCT250
FM201900 VRB05KT P6SM VCTS SCT045CB SCT250
FM210100 14003KT P6SM FEW250
Nessun NOTAM noto per questo aeroporto.



MetMap, La meteo Aeronautica in un colpo d'occhio ! - Copyright ORBIFLY Dicembre 2007 - Disclaimer

ORBIFLY MET'MAP TEAM :

Programmazione e sviluppo : Alexandra Zaïnal
Concezione e sviluppo : Baudouin d'Aumeries
Co-Programmazione e sviluppo : Marc-Olivier Méhu
Supporto tecnico e logistico : Manuel Goepfert
Aiuto per la traduzione : Arnaldo La Scala

Contatto : metmap@orbifly.com




FONTI E CREDITI :

   NOAA       Earth
Advisory